Nearby METAR Reports

 

KBMG - Bloomington, Indiana, USA
Distance from station: SSE 11mi, 18km
Updated: Sun, 21-Apr-2019 1:53pm EDT
Clear
Clear
 Wind from calm
Wind: Calm
Temperature: 70°F , 21°C
Dew Point: 36°F , 2°C
Humidity: 29%
Barometer: 30.08 inHg , 1018.6 hPa
Clouds: Clear
Visibility: 10 miles , 16 km
2019/04/21 17:53 KBMG 211753Z 00000KT 10SM CLR 21/02 A3008 RMK AO2 SLP184 T02060022 10206 20022 50004
KGPC - Greencastle, Indiana, USA
Distance from station: NNW 24mi, 39km
Updated: Sun, 21-Apr-2019 2:15pm EDT
Clear
Clear
 Wind from calm
Wind: Calm
Temperature: 68°F , 20°C
Dew Point: 32°F , 0°C
Humidity: 26%
Barometer: 30.08 inHg , 1018.6 hPa
Clouds: Clear
Visibility: 10 miles , 16 km
2019/04/21 18:15 KGPC 211815Z AUTO 00000KT 10SM CLR 20/00 A3008 RMK AO2
 
KHUF - Terre Haute, Indiana, USA
Distance from station: WNW 34mi, 54km
Updated: Sun, 21-Apr-2019 1:53pm EDT
Clear
Clear
 Wind from S
Wind: S 6 mph , 9 km/h
Temperature: 70°F , 21°C
Dew Point: 37°F , 3°C
Humidity: 31%
Barometer: 30.07 inHg , 1018.3 hPa
Clouds: Clear
Visibility: 10 miles , 16 km
2019/04/21 17:53 KHUF 211753Z 19005KT 10SM CLR 21/03 A3007 RMK AO2 SLP183 T02060033 10211 20017 50000
KIND - Indianapolis, Indiana, USA
Distance from station: NE 36mi, 58km
Updated: Sun, 21-Apr-2019 1:54pm EDT
Partly cloudy
Partly cloudy
 Wind from varies
Wind: varies 3 mph , 6 km/h
Temperature: 64°F , 18°C
Dew Point: 37°F , 3°C
Humidity: 37%
Barometer: 30.08 inHg , 1018.6 hPa
Clouds: Partly cloudy
Visibility: 10 miles , 16 km
Cloud details: Partly cloudy 25000 ft
2019/04/21 17:54 KIND 211754Z VRB03KT 10SM SCT250 18/03 A3008 RMK AO2 SLP188 T01780028 10183 20028 51005
 
KHFY - Indianapolis, Indiana, USA
Distance from station: NE 40mi, 65km
Updated: Tue, 16-Apr-2019 11:00am EDT
NOT Current
Clear
Clear
 Wind from SSW
Wind: SSW 14 mph , 22 km/h, Gust: 20 mph , 31 km/h
Temperature: 61°F , 16°C
Dew Point: 43°F , 6°C
Humidity: 52%
Barometer: 30.06 inHg , 1017.9 hPa
Clouds: Clear
Visibility: 10 miles , 16 km
2019/04/16 15:00 KHFY 161500Z AUTO 21012G17KT 10SM CLR 16/06 A3006 RMK AO2 T01600061
KBAK - Columbus/Balkala, Indiana, USA
Distance from station: E 43mi, 69km
Updated: Sun, 21-Apr-2019 1:47pm EDT
Few Clouds
Few Clouds
 Wind from ESE
Wind: ESE 3 mph , 6 km/h
Temperature: 57°F , 14°C
Dew Point: 45°F , 7°C
Humidity: 63%
Barometer: 30.10 inHg , 1019.3 hPa
Clouds: Few Clouds
Visibility: 10 miles , 16 km
Cloud details: Few Clouds 25000 ft
2019/04/21 17:47 KBAK 211747Z 12003KT 10SM FEW250 14/07 A3010
 
KEYE - Indianapolis, Indiana, USA
Distance from station: NNE 43mi, 69km
Updated: Sun, 21-Apr-2019 1:53pm EDT
Clear
Clear
 Wind from calm
Wind: Calm
Temperature: 64°F , 18°C
Dew Point: 39°F , 4°C
Humidity: 40%
Barometer: 30.08 inHg , 1018.6 hPa
Clouds: Clear
Visibility: 10 miles , 16 km
2019/04/21 17:53 KEYE 211753Z AUTO 00000KT 10SM CLR 18/04 A3008 RMK AO2 SLP187 T01830039 10183 20022 51006
KDCY - Daviess County, Indiana, USA
Distance from station: SSW 47mi, 76km
Updated: Sun, 21-Apr-2019 2:15pm EDT
Clear
Clear
 Wind from calm
Wind: Calm
Temperature: 68°F , 20°C
Dew Point: 36°F , 2°C
Humidity: 30%
Barometer: 30.08 inHg , 1018.6 hPa
Clouds: Clear
Visibility: 10 miles , 16 km
2019/04/21 18:15 KDCY 211815Z AUTO 00000KT 10SM CLR 20/02 A3008 RMK AO2 T02020020
 
KCFJ - Crawfordsville, Indiana, USA
Distance from station: NNW 49mi, 78km
Updated: Sun, 21-Apr-2019 2:15pm EDT
Clear
Clear
 Wind from calm
Wind: Calm
Temperature: 68°F , 20°C
Dew Point: 37°F , 3°C
Humidity: 33%
Barometer: 30.07 inHg , 1018.3 hPa
Clouds: Clear
Visibility: 10 miles , 16 km
2019/04/21 18:15 KCFJ 211815Z AUTO 00000KT 10SM CLR 20/03 A3007 RMK AO2 T01970025